Terminal Aerodrome Forecast
Issued by NWS

Home | Current Version | Previous Version | Text Only | Print | Product List | Glossary Off
Versions: 1 2 3 4 5 6 7 8 9 10 11 12 13 14 15 16 17 18 19 20 21 22 23 24 25 26

000
FTUS42 KMHX 040536
TAFOAJ
TAF
KOAJ 040536Z 0406/0506 00000KT 2SM BR SCT005
      TEMPO 0409/0412 1SM BR BKN005
     FM041300 34005KT P6SM SCT025
     FM041900 05007KT P6SM VCSH SCT050
     FM042300 04005KT P6SM SCT050
      AMD LTD TO CLD VIS AND WIND=

USA.gov is the U.S. government's official web portal to all federal, state and local government web resources and services.